createdAt,value
2023-05-06T00:00:59.555Z,7.88
2023-05-06T00:03:27.538Z,8.43
2023-05-06T00:05:55.443Z,8.40
2023-05-06T00:08:23.199Z,8.50
2023-05-06T00:10:50.821Z,8.43
2023-05-06T00:13:18.568Z,8.27
2023-05-06T00:15:46.179Z,8.02
2023-05-06T00:18:15.365Z,8.20
2023-05-06T00:20:43.342Z,8.15
2023-05-06T00:23:11.326Z,7.57
2023-05-06T00:25:40.310Z,7.22
2023-05-06T00:28:08.037Z,6.13
2023-05-06T00:30:35.738Z,6.93
2023-05-06T00:33:03.517Z,6.82
2023-05-06T00:35:34.161Z,7.35
2023-05-06T00:38:08.803Z,7.67
2023-05-06T00:40:36.696Z,8.98
2023-05-06T00:43:04.315Z,8.15
2023-05-06T00:45:32.072Z,9.70
2023-05-06T00:47:59.777Z,9.47
2023-05-06T00:50:32.605Z,9.88
2023-05-06T00:53:00.236Z,9.30
2023-05-06T00:55:27.723Z,10.47
2023-05-06T00:57:55.406Z,10.43
2023-05-06T01:00:23.029Z,9.88
2023-05-06T01:02:50.734Z,10.63
2023-05-06T01:05:18.760Z,12.02
2023-05-06T01:07:46.476Z,11.65
2023-05-06T01:10:26.128Z,11.25
2023-05-06T01:12:59.349Z,11.00
2023-05-06T01:15:29.665Z,11.65
2023-05-06T01:17:57.257Z,10.00
2023-05-06T01:20:25.347Z,10.10
2023-05-06T01:22:52.911Z,13.65
2023-05-06T01:25:22.214Z,11.45
2023-05-06T01:27:50.261Z,13.77
2023-05-06T01:30:18.313Z,11.50
2023-05-06T01:32:54.380Z,11.38
2023-05-06T01:35:23.932Z,9.02
2023-05-06T01:37:51.601Z,9.00
2023-05-06T01:40:19.235Z,10.23
2023-05-06T01:42:49.258Z,9.80
2023-05-06T01:45:17.314Z,9.87
2023-05-06T01:47:46.065Z,9.88
2023-05-06T01:50:13.915Z,10.27
2023-05-06T01:52:41.716Z,9.40
2023-05-06T01:55:09.650Z,10.27
2023-05-06T01:57:37.622Z,10.70
2023-05-06T02:00:05.833Z,10.25
2023-05-06T02:02:33.478Z,8.93
2023-05-06T02:05:01.226Z,8.77
2023-05-06T02:07:29.001Z,8.85
2023-05-06T02:09:56.603Z,7.73
2023-05-06T02:12:24.190Z,8.32
2023-05-06T02:14:51.755Z,8.27
2023-05-06T02:17:19.360Z,8.03
2023-05-06T02:19:46.967Z,7.95
2023-05-06T02:22:14.496Z,8.45
2023-05-06T02:24:42.122Z,9.85
2023-05-06T02:27:09.724Z,9.83
2023-05-06T02:29:37.347Z,10.23
2023-05-06T02:32:04.941Z,11.15
2023-05-06T02:34:32.512Z,10.37
2023-05-06T02:37:00.244Z,10.40
2023-05-06T02:39:27.829Z,10.05
2023-05-06T02:41:55.410Z,8.10
2023-05-06T02:44:23.024Z,7.45
2023-05-06T02:46:50.688Z,8.77
2023-05-06T02:49:18.261Z,10.15
2023-05-06T02:51:45.878Z,10.47
2023-05-06T02:54:13.464Z,8.13
2023-05-06T02:56:43.371Z,8.63
2023-05-06T02:59:10.968Z,8.13
2023-05-06T03:01:39.877Z,7.90
2023-05-06T03:04:07.688Z,8.63
2023-05-06T03:06:35.333Z,7.63
2023-05-06T03:09:03.015Z,7.57
2023-05-06T03:11:31.637Z,7.20
2023-05-06T03:13:59.212Z,7.28
2023-05-06T03:16:29.878Z,7.80
2023-05-06T03:18:57.723Z,7.25
2023-05-06T03:21:26.313Z,7.30
2023-05-06T03:23:54.220Z,7.57
2023-05-06T03:26:21.800Z,7.05
2023-05-06T03:28:49.450Z,6.60
2023-05-06T03:31:17.105Z,6.60
2023-05-06T03:33:44.667Z,7.05
2023-05-06T03:36:14.158Z,6.68
2023-05-06T03:38:42.015Z,8.48
2023-05-06T03:41:09.597Z,7.60
2023-05-06T03:43:37.531Z,7.88
2023-05-06T03:46:05.902Z,7.90
2023-05-06T03:48:33.607Z,7.23
2023-05-06T03:51:01.182Z,7.68
2023-05-06T03:53:28.971Z,7.90
2023-05-06T03:55:56.646Z,8.03
2023-05-06T03:58:24.963Z,8.15
2023-05-06T04:00:52.666Z,8.48
2023-05-06T04:03:20.347Z,7.75
2023-05-06T04:05:49.533Z,8.13
2023-05-06T04:08:17.436Z,8.13
2023-05-06T04:10:44.970Z,7.78
2023-05-06T04:13:12.590Z,7.97
2023-05-06T04:15:41.630Z,8.35
2023-05-06T04:18:09.720Z,7.63
2023-05-06T04:20:37.301Z,7.87
2023-05-06T04:23:05.229Z,8.48
2023-05-06T04:25:32.952Z,8.10
2023-05-06T04:28:01.128Z,8.52
2023-05-06T04:30:28.640Z,7.87
2023-05-06T04:32:56.922Z,8.13
2023-05-06T04:35:24.497Z,7.85
2023-05-06T04:37:52.220Z,7.87
2023-05-06T04:40:19.822Z,7.85
2023-05-06T04:42:48.855Z,7.75
2023-05-06T04:45:17.050Z,7.60
2023-05-06T04:47:44.579Z,7.93
2023-05-06T04:50:12.379Z,8.57
2023-05-06T04:52:39.950Z,7.90
2023-05-06T04:55:08.048Z,8.30
2023-05-06T04:57:35.780Z,8.48
2023-05-06T05:00:03.660Z,8.68
2023-05-06T05:02:31.381Z,8.90
2023-05-06T05:04:58.940Z,8.30
2023-05-06T05:07:26.538Z,8.25
2023-05-06T05:09:54.008Z,8.43
2023-05-06T05:12:21.605Z,9.18
2023-05-06T05:14:49.133Z,8.48
2023-05-06T05:17:16.895Z,7.72
2023-05-06T05:19:45.969Z,7.67
2023-05-06T05:22:13.501Z,8.63
2023-05-06T05:24:41.571Z,7.60
2023-05-06T05:27:09.102Z,8.17
2023-05-06T05:29:36.782Z,8.43
2023-05-06T05:32:04.410Z,7.88
2023-05-06T05:34:32.720Z,8.80
2023-05-06T05:37:00.263Z,8.27
2023-05-06T05:39:27.854Z,9.23
2023-05-06T05:41:55.393Z,8.10
2023-05-06T05:44:22.982Z,8.73
2023-05-06T05:46:50.990Z,8.15
2023-05-06T05:49:18.790Z,9.07
2023-05-06T05:51:46.378Z,7.83
2023-05-06T05:54:14.940Z,7.80
2023-05-06T05:56:42.532Z,8.00
2023-05-06T05:59:10.140Z,8.37
2023-05-06T06:01:37.751Z,8.55
2023-05-06T06:06:33.026Z,8.43
2023-05-06T06:09:04.375Z,7.83
2023-05-06T06:11:32.021Z,7.22
2023-05-06T06:13:59.524Z,7.68
2023-05-06T06:16:27.235Z,7.67
2023-05-06T06:18:54.835Z,7.97
2023-05-06T06:21:22.393Z,8.10
2023-05-06T06:23:49.947Z,8.57
2023-05-06T06:26:17.434Z,7.53
2023-05-06T06:28:45.160Z,7.97
2023-05-06T06:31:12.763Z,8.25
2023-05-06T06:33:40.322Z,7.63
2023-05-06T06:36:08.728Z,7.95
2023-05-06T06:38:36.707Z,8.32
2023-05-06T06:41:04.762Z,7.53
2023-05-06T06:43:32.253Z,8.20
2023-05-06T06:46:01.061Z,7.80
2023-05-06T06:48:28.682Z,8.50
2023-05-06T06:50:56.212Z,8.23
2023-05-06T06:53:23.714Z,8.75
2023-05-06T06:55:51.505Z,8.50
2023-05-06T06:58:19.109Z,7.70
2023-05-06T07:00:46.670Z,7.97
2023-05-06T07:03:15.958Z,8.38
2023-05-06T07:05:43.563Z,8.27
2023-05-06T07:08:11.388Z,8.13
2023-05-06T07:10:38.991Z,7.82
2023-05-06T07:13:06.615Z,7.43
2023-05-06T07:15:34.336Z,7.53
2023-05-06T07:18:02.071Z,7.57
2023-05-06T07:20:29.563Z,7.43
2023-05-06T07:22:57.167Z,7.00
2023-05-06T07:25:24.779Z,6.72
2023-05-06T07:27:52.980Z,7.10
2023-05-06T07:30:23.173Z,7.00
2023-05-06T07:32:51.547Z,7.05
2023-05-06T07:35:19.101Z,6.30
2023-05-06T07:37:47.123Z,6.70
2023-05-06T07:40:14.812Z,6.68
2023-05-06T07:42:43.203Z,6.50
2023-05-06T07:45:11.465Z,6.10
2023-05-06T07:47:39.386Z,5.93
2023-05-06T07:50:07.297Z,6.18
2023-05-06T07:52:34.833Z,5.72
2023-05-06T07:55:02.495Z,6.03
2023-05-06T07:57:29.948Z,5.32
2023-05-06T07:59:58.638Z,4.53
2023-05-06T08:02:27.280Z,4.13
2023-05-06T08:04:55.113Z,3.90
2023-05-06T08:07:22.739Z,5.45
2023-05-06T08:09:50.282Z,6.03
2023-05-06T08:12:17.897Z,4.50
2023-05-06T08:14:46.906Z,4.78
2023-05-06T08:17:14.637Z,4.57
2023-05-06T08:19:42.288Z,4.67
2023-05-06T08:22:10.043Z,4.45
2023-05-06T08:24:37.624Z,3.78
2023-05-06T08:27:05.806Z,2.70
2023-05-06T08:29:33.362Z,3.08
2023-05-06T08:32:01.670Z,4.43
2023-05-06T08:34:29.350Z,4.72
2023-05-06T08:36:56.963Z,3.83
2023-05-06T08:39:24.647Z,3.50
2023-05-06T08:41:53.022Z,3.15
2023-05-06T08:44:21.339Z,4.10
2023-05-06T08:46:48.846Z,3.90
2023-05-06T08:49:16.668Z,3.90
2023-05-06T08:51:44.535Z,3.75
2023-05-06T08:54:12.704Z,4.07
2023-05-06T08:56:41.554Z,3.50
2023-05-06T08:59:12.281Z,3.13
2023-05-06T09:01:40.012Z,3.20
2023-05-06T09:04:08.118Z,3.40
2023-05-06T09:06:35.789Z,2.70
2023-05-06T09:09:03.474Z,2.63
2023-05-06T09:11:31.840Z,2.83
2023-05-06T09:14:15.730Z,2.85
2023-05-06T09:16:44.030Z,3.33
2023-05-06T09:19:11.819Z,3.20
2023-05-06T09:21:43.320Z,3.00
2023-05-06T09:24:11.391Z,2.75
2023-05-06T09:26:39.632Z,2.33
2023-05-06T09:29:07.304Z,2.10
2023-05-06T09:31:36.014Z,2.50
2023-05-06T09:34:03.938Z,2.03
2023-05-06T09:36:31.944Z,2.28
2023-05-06T09:38:59.701Z,2.67
2023-05-06T09:41:27.575Z,2.70
2023-05-06T09:43:55.449Z,2.03
2023-05-06T09:46:23.298Z,2.40
2023-05-06T09:48:51.782Z,2.40
2023-05-06T09:51:19.606Z,2.20
2023-05-06T09:53:47.307Z,2.28
2023-05-06T09:56:15.208Z,2.70
2023-05-06T09:58:42.965Z,2.50
2023-05-06T10:01:12.073Z,2.00
2023-05-06T10:03:42.278Z,2.33
2023-05-06T10:06:11.650Z,2.40
2023-05-06T10:08:39.330Z,2.35
2023-05-06T10:11:06.958Z,3.30
2023-05-06T10:13:34.552Z,2.55
2023-05-06T10:16:02.995Z,3.10
2023-05-06T10:18:31.333Z,2.72
2023-05-06T10:20:58.897Z,2.85
2023-05-06T10:23:27.686Z,2.90
2023-05-06T10:25:56.994Z,3.20
2023-05-06T10:28:31.304Z,3.08
2023-05-06T10:30:59.839Z,2.97
2023-05-06T10:33:27.532Z,3.15
2023-05-06T10:36:01.857Z,2.97
2023-05-06T10:38:31.286Z,3.00
2023-05-06T10:40:59.180Z,3.90
2023-05-06T10:43:26.857Z,3.35
2023-05-06T10:46:06.867Z,2.47
2023-05-06T10:48:34.887Z,2.53
2023-05-06T10:51:17.580Z,2.65
2023-05-06T10:53:58.269Z,2.90
2023-05-06T10:56:26.498Z,3.10
2023-05-06T10:58:55.877Z,3.42
2023-05-06T11:01:24.163Z,3.28
2023-05-06T11:03:52.225Z,3.28
2023-05-06T11:06:46.459Z,3.43
2023-05-06T11:09:20.891Z,2.88
2023-05-06T11:12:01.036Z,3.75
2023-05-06T11:14:29.168Z,3.20
2023-05-06T11:16:58.855Z,3.10
2023-05-06T11:19:30.338Z,3.60
2023-05-06T11:22:00.516Z,3.17
2023-05-06T11:24:31.779Z,3.75
2023-05-06T11:27:00.063Z,3.00
2023-05-06T11:29:28.011Z,4.22
2023-05-06T11:31:55.652Z,3.03
2023-05-06T11:34:32.465Z,3.38
2023-05-06T11:37:03.516Z,3.53
2023-05-06T11:39:36.562Z,3.40
2023-05-06T11:42:07.446Z,4.57
2023-05-06T11:44:36.114Z,3.70
2023-05-06T11:47:06.069Z,3.60
2023-05-06T11:49:38.108Z,4.25
2023-05-06T11:52:05.869Z,3.72
2023-05-06T11:54:37.006Z,3.05
2023-05-06T11:57:04.802Z,3.13
2023-05-06T11:59:33.325Z,4.03
2023-05-06T12:02:01.697Z,4.15
2023-05-06T12:04:29.708Z,4.00
2023-05-06T12:06:57.500Z,3.47
2023-05-06T12:09:25.159Z,3.85
2023-05-06T12:11:52.765Z,3.50
2023-05-06T12:14:20.357Z,3.00
2023-05-06T12:16:47.946Z,3.72
2023-05-06T12:19:18.780Z,4.40
2023-05-06T12:21:46.611Z,3.60
2023-05-06T12:24:14.267Z,3.80
2023-05-06T12:26:48.728Z,4.38
2023-05-06T12:29:20.010Z,3.97
2023-05-06T12:31:48.012Z,4.28
2023-05-06T12:34:19.325Z,4.35
2023-05-06T12:36:47.673Z,4.68
2023-05-06T12:39:15.407Z,4.28
2023-05-06T12:41:43.643Z,4.63
2023-05-06T12:44:29.722Z,3.70
2023-05-06T12:46:57.288Z,4.37
2023-05-06T12:49:24.858Z,4.15
2023-05-06T12:52:08.480Z,4.25
2023-05-06T12:54:36.246Z,3.87
2023-05-06T12:57:06.613Z,4.20
2023-05-06T12:59:34.232Z,5.10
2023-05-06T13:02:01.883Z,4.90
2023-05-06T13:04:29.606Z,5.70
2023-05-06T13:06:57.285Z,4.72
2023-05-06T13:09:25.019Z,4.18
2023-05-06T13:11:53.721Z,4.40
2023-05-06T13:14:21.805Z,3.15
2023-05-06T13:16:49.584Z,4.90
2023-05-06T13:19:31.660Z,6.17
2023-05-06T13:22:01.050Z,5.25
2023-05-06T13:24:29.025Z,6.85
2023-05-06T13:26:57.405Z,6.90
2023-05-06T13:29:25.201Z,6.70
2023-05-06T13:31:53.121Z,7.43
2023-05-06T13:34:20.950Z,7.40
2023-05-06T13:36:49.705Z,6.93
2023-05-06T13:39:17.302Z,7.35
2023-05-06T13:41:47.565Z,6.97
2023-05-06T13:44:15.226Z,7.70
2023-05-06T13:46:44.901Z,8.23
2023-05-06T13:49:14.641Z,6.68
2023-05-06T13:51:42.185Z,7.73
2023-05-06T13:54:10.197Z,6.78
2023-05-06T13:56:37.825Z,7.53
2023-05-06T13:59:06.061Z,6.93
2023-05-06T14:01:33.997Z,7.10
2023-05-06T14:04:01.615Z,7.93
2023-05-06T14:06:29.273Z,7.97
2023-05-06T14:08:56.996Z,8.30
2023-05-06T14:11:24.689Z,6.95
2023-05-06T14:13:52.412Z,7.90
2023-05-06T14:16:20.085Z,7.00
2023-05-06T14:18:47.686Z,7.40
2023-05-06T14:21:15.293Z,6.68
2023-05-06T14:23:42.903Z,6.68
2023-05-06T14:26:10.623Z,5.93
2023-05-06T14:28:39.722Z,6.55
2023-05-06T14:31:07.338Z,5.47
2023-05-06T14:33:34.962Z,6.23
2023-05-06T14:36:03.586Z,6.07
2023-05-06T14:38:31.480Z,6.40
2023-05-06T14:40:59.574Z,6.65
2023-05-06T14:43:28.298Z,6.55
2023-05-06T14:45:55.976Z,6.47
2023-05-06T14:48:25.512Z,6.85
2023-05-06T14:50:53.646Z,5.07
2023-05-06T14:53:21.286Z,5.47
2023-05-06T14:55:49.076Z,6.40
2023-05-06T14:58:16.739Z,4.63
2023-05-06T15:00:44.361Z,6.63
2023-05-06T15:03:11.878Z,4.80
2023-05-06T15:05:39.564Z,5.20
2023-05-06T15:08:07.456Z,5.90
2023-05-06T15:10:35.134Z,6.63
2023-05-06T15:13:03.008Z,5.22
2023-05-06T15:15:30.748Z,6.63
2023-05-06T15:17:58.475Z,6.00
2023-05-06T15:20:26.231Z,6.72
2023-05-06T15:22:54.021Z,7.93
2023-05-06T15:25:33.988Z,6.38
2023-05-06T15:28:03.174Z,5.93
2023-05-06T15:30:30.724Z,6.18
2023-05-06T15:32:58.464Z,7.20
2023-05-06T15:35:26.461Z,5.90
2023-05-06T15:37:58.953Z,6.55
2023-05-06T15:40:29.572Z,4.80
2023-05-06T15:42:57.116Z,3.70
2023-05-06T15:45:24.727Z,2.53
2023-05-06T15:47:52.501Z,2.40
2023-05-06T15:50:32.460Z,2.63
2023-05-06T15:53:02.143Z,2.80
2023-05-06T15:55:30.134Z,2.65
2023-05-06T15:58:00.601Z,3.75
2023-05-06T16:00:28.443Z,3.90
2023-05-06T16:02:57.292Z,3.97
2023-05-06T16:05:25.126Z,4.77
2023-05-06T16:07:52.807Z,4.82
2023-05-06T16:10:20.380Z,5.32
2023-05-06T16:12:47.991Z,4.67
2023-05-06T16:15:15.542Z,5.13
2023-05-06T16:17:43.338Z,5.53
2023-05-06T16:20:11.267Z,6.45
2023-05-06T16:22:41.881Z,5.85
2023-05-06T16:25:09.497Z,5.22
2023-05-06T16:27:37.158Z,4.82
2023-05-06T16:30:04.972Z,4.07
2023-05-06T16:32:32.696Z,4.35
2023-05-06T16:35:00.554Z,4.50
2023-05-06T16:37:29.189Z,4.40
2023-05-06T16:39:56.912Z,4.40
2023-05-06T16:42:24.600Z,4.70
2023-05-06T16:44:52.555Z,4.95
2023-05-06T16:47:24.498Z,4.93
2023-05-06T16:49:52.481Z,3.35
2023-05-06T16:52:20.180Z,3.97
2023-05-06T16:54:47.681Z,4.80
2023-05-06T16:57:15.609Z,5.00
2023-05-06T16:59:43.189Z,4.78
2023-05-06T17:02:10.893Z,5.33
2023-05-06T17:04:38.409Z,5.15
2023-05-06T17:07:06.331Z,4.70
2023-05-06T17:09:33.918Z,4.45
2023-05-06T17:12:02.516Z,5.10
2023-05-06T17:14:30.262Z,4.35
2023-05-06T17:17:02.300Z,4.03
2023-05-06T17:19:29.940Z,4.10
2023-05-06T17:21:57.816Z,3.85
2023-05-06T17:24:26.018Z,4.70
2023-05-06T17:26:56.651Z,5.03
2023-05-06T17:29:24.301Z,4.75
2023-05-06T17:31:51.983Z,4.90
2023-05-06T17:34:19.552Z,4.75
2023-05-06T17:36:47.241Z,5.07
2023-05-06T17:39:15.338Z,5.20
2023-05-06T17:41:43.108Z,4.18
2023-05-06T17:44:10.770Z,5.23
2023-05-06T17:46:38.651Z,5.88
2023-05-06T17:49:06.688Z,5.70
2023-05-06T17:51:37.579Z,6.57
2023-05-06T17:54:05.408Z,4.75
2023-05-06T17:56:33.154Z,5.10
2023-05-06T17:59:02.722Z,5.80
2023-05-06T18:01:30.455Z,5.78
2023-05-06T18:03:58.973Z,4.55
2023-05-06T18:06:27.208Z,4.65
2023-05-06T18:08:54.963Z,5.73
2023-05-06T18:11:22.551Z,4.03
2023-05-06T18:13:50.082Z,5.78
2023-05-06T18:16:17.727Z,5.30
2023-05-06T18:18:45.359Z,5.10
2023-05-06T18:21:12.961Z,6.50
2023-05-06T18:23:40.999Z,4.67
2023-05-06T18:26:08.664Z,6.07
2023-05-06T18:28:41.231Z,6.05
2023-05-06T18:31:09.370Z,6.30
2023-05-06T18:33:38.454Z,6.47
2023-05-06T18:36:07.197Z,6.22
2023-05-06T18:38:37.834Z,5.57
2023-05-06T18:41:08.968Z,6.83
2023-05-06T18:43:36.676Z,6.47
2023-05-06T18:46:06.349Z,6.30
2023-05-06T18:48:34.157Z,7.70
2023-05-06T18:51:14.111Z,6.15
2023-05-06T18:53:41.997Z,6.60
2023-05-06T18:56:09.636Z,7.10
2023-05-06T18:58:37.975Z,7.70
2023-05-06T19:01:06.034Z,6.80
2023-05-06T19:03:34.554Z,8.00
2023-05-06T19:06:03.282Z,6.27
2023-05-06T19:08:31.292Z,7.75
2023-05-06T19:11:02.174Z,8.27
2023-05-06T19:13:29.845Z,8.60
2023-05-06T19:15:57.390Z,8.55
2023-05-06T19:18:24.914Z,7.80
2023-05-06T19:20:53.475Z,7.63
2023-05-06T19:23:21.657Z,8.20
2023-05-06T19:25:49.236Z,7.88
2023-05-06T19:28:16.948Z,8.40
2023-05-06T19:30:46.098Z,7.30
2023-05-06T19:33:13.820Z,7.78
2023-05-06T19:35:41.680Z,7.93
2023-05-06T19:38:09.474Z,5.67
2023-05-06T19:40:37.289Z,7.25
2023-05-06T19:43:04.933Z,6.38
2023-05-06T19:45:32.670Z,6.72
2023-05-06T19:48:04.194Z,7.33
2023-05-06T19:50:32.622Z,7.15
2023-05-06T19:53:00.415Z,7.43
2023-05-06T19:55:28.120Z,7.37
2023-05-06T19:57:58.779Z,7.03
2023-05-06T20:00:28.197Z,7.38
2023-05-06T20:02:56.815Z,7.20
2023-05-06T20:05:24.712Z,8.00
2023-05-06T20:07:52.688Z,7.57
2023-05-06T20:10:20.792Z,6.40
2023-05-06T20:12:48.430Z,8.03
2023-05-06T20:15:16.042Z,6.70
2023-05-06T20:17:43.792Z,7.55
2023-05-06T20:20:11.599Z,6.53
2023-05-06T20:22:41.869Z,8.20
2023-05-06T20:25:10.461Z,7.03
2023-05-06T20:27:38.465Z,6.87
2023-05-06T20:30:08.082Z,6.47
2023-05-06T20:32:36.651Z,7.00
2023-05-06T20:35:04.588Z,7.63
2023-05-06T20:37:32.289Z,7.23
2023-05-06T20:39:59.828Z,6.18
2023-05-06T20:42:27.849Z,8.13
2023-05-06T20:44:55.747Z,7.37
2023-05-06T20:47:23.405Z,6.50
2023-05-06T20:49:51.334Z,7.03
2023-05-06T20:52:19.041Z,7.77
2023-05-06T20:54:46.736Z,6.05
2023-05-06T20:57:14.796Z,6.38
2023-05-06T20:59:42.432Z,7.55
2023-05-06T21:02:10.269Z,5.10
2023-05-06T21:04:38.003Z,7.22
2023-05-06T21:07:05.790Z,6.38
2023-05-06T21:09:33.429Z,7.23
2023-05-06T21:12:01.049Z,7.05
2023-05-06T21:14:28.666Z,8.18
2023-05-06T21:16:56.363Z,6.70
2023-05-06T21:19:24.011Z,6.82
2023-05-06T21:21:51.553Z,6.05
2023-05-06T21:24:19.110Z,7.18
2023-05-06T21:26:46.760Z,6.57
2023-05-06T21:29:14.409Z,6.70
2023-05-06T21:31:42.098Z,6.70
2023-05-06T21:34:10.649Z,5.70
2023-05-06T21:36:38.362Z,4.70
2023-05-06T21:39:08.849Z,5.95
2023-05-06T21:41:36.757Z,5.00
2023-05-06T21:44:04.777Z,5.97
2023-05-06T21:46:32.735Z,5.95
2023-05-06T21:49:00.540Z,5.05
2023-05-06T21:51:28.427Z,5.90
2023-05-06T21:53:56.033Z,5.00
2023-05-06T21:56:24.358Z,6.60
2023-05-06T21:58:52.881Z,7.50
2023-05-06T22:01:20.724Z,5.85
2023-05-06T22:03:48.445Z,6.75
2023-05-06T22:06:16.072Z,6.00
2023-05-06T22:08:43.806Z,5.90
2023-05-06T22:11:11.324Z,4.22
2023-05-06T22:13:38.901Z,7.18
2023-05-06T22:16:07.840Z,5.00
2023-05-06T22:18:36.097Z,5.18
2023-05-06T22:21:03.740Z,6.13
2023-05-06T22:23:31.431Z,6.10
2023-05-06T22:26:00.288Z,6.72
2023-05-06T22:28:28.153Z,5.60
2023-05-06T22:30:55.810Z,5.80
2023-05-06T22:33:23.440Z,8.05
2023-05-06T22:35:51.149Z,5.18
2023-05-06T22:38:18.723Z,5.30
2023-05-06T22:40:46.347Z,6.87
2023-05-06T22:43:13.858Z,4.47
2023-05-06T22:45:41.509Z,6.90
2023-05-06T22:48:09.263Z,7.60
2023-05-06T22:50:38.213Z,6.95
2023-05-06T22:53:14.417Z,5.75
2023-05-06T22:55:43.055Z,8.40
2023-05-06T22:58:10.894Z,8.15
2023-05-06T23:00:43.285Z,7.63
2023-05-06T23:03:10.951Z,5.35
2023-05-06T23:05:38.629Z,5.37
2023-05-06T23:08:06.635Z,6.53
2023-05-06T23:10:34.139Z,4.93
2023-05-06T23:13:02.166Z,7.47
2023-05-06T23:15:29.829Z,5.88
2023-05-06T23:17:57.609Z,5.57
2023-05-06T23:20:25.176Z,6.73
2023-05-06T23:22:52.829Z,6.28
2023-05-06T23:25:20.971Z,7.97
2023-05-06T23:27:48.687Z,8.98
2023-05-06T23:30:16.268Z,4.67
2023-05-06T23:32:44.941Z,5.88
2023-05-06T23:35:12.877Z,4.80
2023-05-06T23:37:40.660Z,5.20
2023-05-06T23:40:08.457Z,7.03
2023-05-06T23:42:36.159Z,8.52
2023-05-06T23:45:04.636Z,5.43
2023-05-06T23:47:32.622Z,7.50
2023-05-06T23:50:00.770Z,6.47
2023-05-06T23:52:29.666Z,8.05
2023-05-06T23:54:57.187Z,7.17
2023-05-06T23:57:24.789Z,3.97
2023-05-06T23:59:53.467Z,7.95
